Bmc Master — V7ZF7 — position and weather

sailwx.info

Track history (hours):
 
Tides and Currents Weather Stations Pressure Air Temp Water Temp Dewpoint Dewpoint Depression Visibility Wind Speed Wind Dir Waves Ship Positions

Bmc Master

Last reported at 2017-Oct-06 13:02 UTC. Time now 2017-Nov-20 13:51 UTC.
Position N 35°43' E 016°17'.
Warning: this ship's position is 45 days out of date.

Length 116 m; draft 6.6 m.

Type: Cargo ship. MMSI: 538004813.

Date/timePositionNaut miles runAvg speedWind from/ knotsBaromVisibWave heightAir tempDewpointWater temp
2017-Oct-06 13:02N 35°43' E 016°17'112.2
2017-Oct-06 12:59N 35°44' E 016°16'7712.5
2017-Oct-06 06:49N 36°11' E 014°48'412.7
2017-Oct-06 06:30N 36°12' E 014°43'612.5
2017-Oct-06 06:00N 36°14' E 014°35'612.6
2017-Oct-06 05:30N 36°17' E 014°28'612.4
2017-Oct-06 04:59N 36°19' E 014°21'612.6
2017-Oct-06 04:30N 36°21' E 014°14'712.8
2017-Oct-06 03:59N 36°23' E 014°06'612.7
2017-Oct-06 03:30N 36°25' E 013°59'612.6
2017-Oct-06 03:00N 36°28' E 013°52'612.4
2017-Oct-06 02:30N 36°30' E 013°44'2112.2
2017-Oct-06 00:46N 36°37' E 013°20'  
2017-Oct-02 04:14N 36°07' W 007°15'310.7
2017-Oct-02 03:57N 36°08' W 007°18'511.0
2017-Oct-02 03:30N 36°09' W 007°24'611.2
2017-Oct-02 03:00N 36°11' W 007°31'4311.7
2017-Oct-01 23:21N 36°22' W 008°22'912.1
2017-Oct-01 22:37N 36°24' W 008°33'111.9
2017-Oct-01 22:30N 36°24' W 008°34'612.0
2017-Oct-01 22:00N 36°26' W 008°41'611.9
2017-Oct-01 21:30N 36°27' W 008°49'611.8
2017-Oct-01 21:00N 36°29' W 008°56'612.1
2017-Oct-01 20:30N 36°31' W 009°03'612.0
2017-Oct-01 20:00N 36°32' W 009°10'611.5
2017-Oct-01 19:30N 36°34' W 009°17'611.9
2017-Oct-01 19:00N 36°38' W 009°22'612.1
2017-Oct-01 18:30N 36°43' W 009°27'612.4
2017-Oct-01 18:00N 36°48' W 009°32'612.1
2017-Oct-01 17:29N 36°53' W 009°34'612.2
2017-Oct-01 17:00N 36°59' W 009°36'712.4
2017-Oct-01 16:29N 37°06' W 009°38'612.2
2017-Oct-01 16:00N 37°11' W 009°39'612.5
2017-Oct-01 15:30N 37°17' W 009°41'912.2
2017-Oct-01 14:47N 37°26' W 009°44'312.5
2017-Oct-01 14:30N 37°29' W 009°45'612.5
2017-Oct-01 14:00N 37°35' W 009°47'612.1
2017-Oct-01 13:30N 37°41' W 009°48'612.4
2017-Oct-01 13:00N 37°47' W 009°50'612.6
2017-Oct-01 12:30N 37°53' W 009°52'612.6
2017-Oct-01 12:00N 37°59' W 009°54'612.6
2017-Oct-01 11:30N 38°06' W 009°55'612.5
2017-Oct-01 11:00N 38°12' W 009°57'612.5
2017-Oct-01 10:30N 38°18' W 009°59'612.4
2017-Oct-01 10:00N 38°24' W 010°01'612.0
2017-Oct-01 09:30N 38°30' W 010°02'612.4
2017-Oct-01 09:00N 38°36' W 010°03'612.0
2017-Oct-01 08:30N 38°41' W 010°06'612.8
2017-Oct-01 08:00N 38°48' W 010°06'612.6
2017-Oct-01 07:30N 38°54' W 010°06'612.3
2017-Oct-01 07:00N 39°00' W 010°06'612.2
2017-Oct-01 06:30N 39°06' W 010°06'612.1
2017-Oct-01 06:00N 39°12' W 010°06'612.1
2017-Oct-01 05:30N 39°18' W 010°06'58411.2
2017-Sep-29 01:35N 48°36' W 006°03'112.4
2017-Sep-29 01:30N 48°37' W 006°02'612.2
2017-Sep-29 01:00N 48°42' W 005°58'611.7
2017-Sep-29 00:30N 48°47' W 005°53'611.7
2017-Sep-29 00:00N 48°52' W 005°49'611.4
2017-Sep-28 23:30N 48°56' W 005°42'510.7
2017-Sep-28 23:00N 48°58' W 005°35'5 9.7
2017-Sep-28 22:30N 49°01' W 005°29'5 9.3
2017-Sep-28 22:00N 49°04' W 005°23'4 8.1
2017-Sep-28 21:29N 49°06' W 005°18'6 8.1
2017-Sep-28 20:41N 49°09' W 005°09'4611.5
2017-Sep-28 16:38N 49°33' W 004°08'312.4
2017-Sep-28 16:24N 49°34' W 004°04'512.4
2017-Sep-28 16:00N 49°37' W 003°58'712.3
2017-Sep-28 15:25N 49°41' W 003°48'512.1
2017-Sep-28 15:00N 49°43' W 003°42'611.9
2017-Sep-28 14:30N 49°46' W 003°34'611.7
2017-Sep-28 14:00N 49°49' W 003°26'611.4
2017-Sep-28 13:30N 49°52' W 003°18'611.3
2017-Sep-28 12:58N 49°54' W 003°09'511.0
2017-Sep-28 12:30N 49°57' W 003°03'511.0
2017-Sep-28 12:00N 49°59' W 002°55'510.9
2017-Sep-28 11:30N 50°01' W 002°47'2511.3
2017-Sep-28 09:16N 50°08' W 002°09'312.2
2017-Sep-28 09:00N 50°09' W 002°04'612.4
2017-Sep-28 08:30N 50°10' W 001°55'612.9
2017-Sep-28 08:01N 50°12' W 001°45'713.1
2017-Sep-28 07:30N 50°13' W 001°35'713.3
2017-Sep-28 07:00N 50°15' W 001°25'713.3
2017-Sep-28 06:30N 50°17' W 001°15'3112.5
2017-Sep-28 04:01N 50°25' W 000°28'011.6
2017-Sep-28 04:00N 50°25' W 000°28'611.5
2017-Sep-28 03:30N 50°27' W 000°19'611.2
2017-Sep-28 03:00N 50°28' W 000°11'510.9
2017-Sep-28 02:30N 50°30' W 000°02'510.7
2017-Sep-28 02:00N 50°31' E 000°06'510.5
2017-Sep-28 01:30N 50°32' E 000°14'510.2
2017-Sep-28 01:00N 50°35' E 000°21'510.6
2017-Sep-28 00:30N 50°37' E 000°28'611.0
2017-Sep-28 00:00N 50°38' E 000°37'611.4
2017-Sep-27 23:30N 50°41' E 000°44'612.0
2017-Sep-27 23:00N 50°45' E 000°52'612.3
2017-Sep-27 22:30N 50°49' E 000°59'612.6
2017-Sep-27 22:00N 50°53' E 001°07'612.7
2017-Sep-27 21:30N 50°57' E 001°15'612.8
2017-Sep-27 21:00N 51°01' E 001°22'612.5
2017-Sep-27 20:30N 51°05' E 001°30'611.9
2017-Sep-27 20:00N 51°09' E 001°37'611.5
2017-Sep-27 19:30N 51°13' E 001°44'611.2
2017-Sep-27 19:00N 51°17' E 001°50'611.1
2017-Sep-27 18:30N 51°22' E 001°55'510.8
2017-Sep-27 18:00N 51°26' E 001°60'510.8
2017-Sep-27 17:30N 51°30' E 002°05'611.0
2017-Sep-27 17:00N 51°35' E 002°11'611.1
2017-Sep-27 16:30N 51°39' E 002°17'611.5
2017-Sep-27 16:00N 51°43' E 002°22'811.9
2017-Sep-27 15:21N 51°49' E 002°30'412.4
2017-Sep-27 15:00N 51°53' E 002°34'712.8
2017-Sep-27 14:29N 51°59' E 002°37'3113.1
2017-Sep-27 12:07N 52°29' E 002°52'12911.8
2017-Sep-27 01:10N 54°20' E 004°43'212.1
2017-Sep-27 01:00N 54°22' E 004°45'611.9
2017-Sep-27 00:29N 54°27' E 004°50'611.8
2017-Sep-27 00:00N 54°32' E 004°55'  
Track history (hours):
 
Tides and Currents Weather Stations Pressure Air Temp Water Temp Dewpoint Dewpoint Depression Visibility Wind Speed Wind Dir Waves Ship Positions

Bmc Master

Last reported at 2017-Oct-06 13:02 UTC. Time now 2017-Nov-20 13:51 UTC.
Position N 35°43' E 016°17'.
Warning: this ship's position is 45 days out of date.

Length 116 m; draft 6.6 m.

Type: Cargo ship. MMSI: 538004813.

Date/timePositionNaut miles runAvg speedWind from/ knotsBaromVisibWave heightAir tempDewpointWater temp
2017-Oct-06 13:02N 35°43' E 016°17'112.2
2017-Oct-06 12:59N 35°44' E 016°16'7712.5
2017-Oct-06 06:49N 36°11' E 014°48'412.7
2017-Oct-06 06:30N 36°12' E 014°43'612.5
2017-Oct-06 06:00N 36°14' E 014°35'612.6
2017-Oct-06 05:30N 36°17' E 014°28'612.4
2017-Oct-06 04:59N 36°19' E 014°21'612.6
2017-Oct-06 04:30N 36°21' E 014°14'712.8
2017-Oct-06 03:59N 36°23' E 014°06'612.7
2017-Oct-06 03:30N 36°25' E 013°59'612.6
2017-Oct-06 03:00N 36°28' E 013°52'612.4
2017-Oct-06 02:30N 36°30' E 013°44'2112.2
2017-Oct-06 00:46N 36°37' E 013°20'  
2017-Oct-02 04:14N 36°07' W 007°15'310.7
2017-Oct-02 03:57N 36°08' W 007°18'511.0
2017-Oct-02 03:30N 36°09' W 007°24'611.2
2017-Oct-02 03:00N 36°11' W 007°31'4311.7
2017-Oct-01 23:21N 36°22' W 008°22'912.1
2017-Oct-01 22:37N 36°24' W 008°33'111.9
2017-Oct-01 22:30N 36°24' W 008°34'612.0
2017-Oct-01 22:00N 36°26' W 008°41'611.9
2017-Oct-01 21:30N 36°27' W 008°49'611.8
2017-Oct-01 21:00N 36°29' W 008°56'612.1
2017-Oct-01 20:30N 36°31' W 009°03'612.0
2017-Oct-01 20:00N 36°32' W 009°10'611.5
2017-Oct-01 19:30N 36°34' W 009°17'611.9
2017-Oct-01 19:00N 36°38' W 009°22'612.1
2017-Oct-01 18:30N 36°43' W 009°27'612.4
2017-Oct-01 18:00N 36°48' W 009°32'612.1
2017-Oct-01 17:29N 36°53' W 009°34'612.2
2017-Oct-01 17:00N 36°59' W 009°36'712.4
2017-Oct-01 16:29N 37°06' W 009°38'612.2
2017-Oct-01 16:00N 37°11' W 009°39'612.5
2017-Oct-01 15:30N 37°17' W 009°41'912.2
2017-Oct-01 14:47N 37°26' W 009°44'312.5
2017-Oct-01 14:30N 37°29' W 009°45'612.5
2017-Oct-01 14:00N 37°35' W 009°47'612.1
2017-Oct-01 13:30N 37°41' W 009°48'612.4
2017-Oct-01 13:00N 37°47' W 009°50'612.6
2017-Oct-01 12:30N 37°53' W 009°52'612.6
2017-Oct-01 12:00N 37°59' W 009°54'612.6
2017-Oct-01 11:30N 38°06' W 009°55'612.5
2017-Oct-01 11:00N 38°12' W 009°57'612.5
2017-Oct-01 10:30N 38°18' W 009°59'612.4
2017-Oct-01 10:00N 38°24' W 010°01'612.0
2017-Oct-01 09:30N 38°30' W 010°02'612.4
2017-Oct-01 09:00N 38°36' W 010°03'612.0
2017-Oct-01 08:30N 38°41' W 010°06'612.8
2017-Oct-01 08:00N 38°48' W 010°06'612.6
2017-Oct-01 07:30N 38°54' W 010°06'612.3
2017-Oct-01 07:00N 39°00' W 010°06'612.2
2017-Oct-01 06:30N 39°06' W 010°06'612.1
2017-Oct-01 06:00N 39°12' W 010°06'612.1
2017-Oct-01 05:30N 39°18' W 010°06'58411.2
2017-Sep-29 01:35N 48°36' W 006°03'112.4
2017-Sep-29 01:30N 48°37' W 006°02'612.2
2017-Sep-29 01:00N 48°42' W 005°58'611.7
2017-Sep-29 00:30N 48°47' W 005°53'611.7
2017-Sep-29 00:00N 48°52' W 005°49'611.4
2017-Sep-28 23:30N 48°56' W 005°42'510.7
2017-Sep-28 23:00N 48°58' W 005°35'5 9.7
2017-Sep-28 22:30N 49°01' W 005°29'5 9.3
2017-Sep-28 22:00N 49°04' W 005°23'4 8.1
2017-Sep-28 21:29N 49°06' W 005°18'6 8.1
2017-Sep-28 20:41N 49°09' W 005°09'4611.5
2017-Sep-28 16:38N 49°33' W 004°08'312.4
2017-Sep-28 16:24N 49°34' W 004°04'512.4
2017-Sep-28 16:00N 49°37' W 003°58'712.3
2017-Sep-28 15:25N 49°41' W 003°48'512.1
2017-Sep-28 15:00N 49°43' W 003°42'611.9
2017-Sep-28 14:30N 49°46' W 003°34'611.7
2017-Sep-28 14:00N 49°49' W 003°26'611.4
2017-Sep-28 13:30N 49°52' W 003°18'611.3
2017-Sep-28 12:58N 49°54' W 003°09'511.0
2017-Sep-28 12:30N 49°57' W 003°03'511.0
2017-Sep-28 12:00N 49°59' W 002°55'510.9
2017-Sep-28 11:30N 50°01' W 002°47'2511.3
2017-Sep-28 09:16N 50°08' W 002°09'312.2
2017-Sep-28 09:00N 50°09' W 002°04'612.4
2017-Sep-28 08:30N 50°10' W 001°55'612.9
2017-Sep-28 08:01N 50°12' W 001°45'713.1
2017-Sep-28 07:30N 50°13' W 001°35'713.3
2017-Sep-28 07:00N 50°15' W 001°25'713.3
2017-Sep-28 06:30N 50°17' W 001°15'3112.5
2017-Sep-28 04:01N 50°25' W 000°28'011.6
2017-Sep-28 04:00N 50°25' W 000°28'611.5
2017-Sep-28 03:30N 50°27' W 000°19'611.2
2017-Sep-28 03:00N 50°28' W 000°11'510.9
2017-Sep-28 02:30N 50°30' W 000°02'510.7
2017-Sep-28 02:00N 50°31' E 000°06'510.5
2017-Sep-28 01:30N 50°32' E 000°14'510.2
2017-Sep-28 01:00N 50°35' E 000°21'510.6
2017-Sep-28 00:30N 50°37' E 000°28'611.0
2017-Sep-28 00:00N 50°38' E 000°37'611.4
2017-Sep-27 23:30N 50°41' E 000°44'612.0
2017-Sep-27 23:00N 50°45' E 000°52'612.3
2017-Sep-27 22:30N 50°49' E 000°59'612.6
2017-Sep-27 22:00N 50°53' E 001°07'612.7
2017-Sep-27 21:30N 50°57' E 001°15'612.8
2017-Sep-27 21:00N 51°01' E 001°22'612.5
2017-Sep-27 20:30N 51°05' E 001°30'611.9
2017-Sep-27 20:00N 51°09' E 001°37'611.5
2017-Sep-27 19:30N 51°13' E 001°44'611.2
2017-Sep-27 19:00N 51°17' E 001°50'611.1
2017-Sep-27 18:30N 51°22' E 001°55'510.8
2017-Sep-27 18:00N 51°26' E 001°60'510.8
2017-Sep-27 17:30N 51°30' E 002°05'611.0
2017-Sep-27 17:00N 51°35' E 002°11'611.1
2017-Sep-27 16:30N 51°39' E 002°17'611.5
2017-Sep-27 16:00N 51°43' E 002°22'811.9
2017-Sep-27 15:21N 51°49' E 002°30'412.4
2017-Sep-27 15:00N 51°53' E 002°34'712.8
2017-Sep-27 14:29N 51°59' E 002°37'3113.1
2017-Sep-27 12:07N 52°29' E 002°52'12911.8
2017-Sep-27 01:10N 54°20' E 004°43'212.1
2017-Sep-27 01:00N 54°22' E 004°45'611.9
2017-Sep-27 00:29N 54°27' E 004°50'611.8
2017-Sep-27 00:00N 54°32' E 004°55'  

Dump ship's entire track history